sensor_id;sensor_type;location;lat;lon;timestamp;P1;durP1;ratioP1;P2;durP2;ratioP2
79284;SDS011;68734;50.452;11.636;2023-05-20T00:02:14;19.95;;;10.60;;
79284;SDS011;68734;50.452;11.636;2023-05-20T00:04:40;19.75;;;9.43;;
79284;SDS011;68734;50.452;11.636;2023-05-20T00:07:08;17.80;;;9.52;;
79284;SDS011;68734;50.452;11.636;2023-05-20T00:09:33;22.38;;;11.20;;
79284;SDS011;68734;50.452;11.636;2023-05-20T00:11:59;18.65;;;10.77;;
79284;SDS011;68734;50.452;11.636;2023-05-20T00:14:24;16.38;;;9.32;;
79284;SDS011;68734;50.452;11.636;2023-05-20T00:16:49;17.23;;;10.05;;
79284;SDS011;68734;50.452;11.636;2023-05-20T00:19:15;24.45;;;10.35;;
79284;SDS011;68734;50.452;11.636;2023-05-20T00:21:40;24.73;;;10.63;;
79284;SDS011;68734;50.452;11.636;2023-05-20T00:24:06;27.25;;;11.13;;
79284;SDS011;68734;50.452;11.636;2023-05-20T00:26:31;20.05;;;10.27;;
79284;SDS011;68734;50.452;11.636;2023-05-20T00:28:57;19.00;;;9.90;;
79284;SDS011;68734;50.452;11.636;2023-05-20T00:31:22;21.50;;;10.35;;
79284;SDS011;68734;50.452;11.636;2023-05-20T00:33:48;24.77;;;11.68;;
79284;SDS011;68734;50.452;11.636;2023-05-20T00:36:13;21.42;;;10.40;;
79284;SDS011;68734;50.452;11.636;2023-05-20T00:38:39;18.50;;;9.77;;
79284;SDS011;68734;50.452;11.636;2023-05-20T00:41:06;19.40;;;9.10;;
79284;SDS011;68734;50.452;11.636;2023-05-20T00:43:32;25.48;;;10.68;;
79284;SDS011;68734;50.452;11.636;2023-05-20T00:45:57;21.42;;;11.07;;
79284;SDS011;68734;50.452;11.636;2023-05-20T00:48:23;24.10;;;10.30;;
79284;SDS011;68734;50.452;11.636;2023-05-20T00:50:48;19.60;;;9.95;;
79284;SDS011;68734;50.452;11.636;2023-05-20T00:53:17;20.20;;;10.68;;
79284;SDS011;68734;50.452;11.636;2023-05-20T00:55:44;23.60;;;11.00;;
79284;SDS011;68734;50.452;11.636;2023-05-20T00:58:09;19.40;;;9.77;;
79284;SDS011;68734;50.452;11.636;2023-05-20T01:00:35;18.10;;;10.43;;
79284;SDS011;68734;50.452;11.636;2023-05-20T01:03:01;23.88;;;11.45;;
79284;SDS011;68734;50.452;11.636;2023-05-20T01:05:26;19.30;;;10.75;;
79284;SDS011;68734;50.452;11.636;2023-05-20T01:07:52;21.30;;;10.32;;
79284;SDS011;68734;50.452;11.636;2023-05-20T01:10:17;18.98;;;10.10;;
79284;SDS011;68734;50.452;11.636;2023-05-20T01:12:45;20.77;;;10.30;;
79284;SDS011;68734;50.452;11.636;2023-05-20T01:15:18;18.90;;;10.00;;
79284;SDS011;68734;50.452;11.636;2023-05-20T01:17:46;21.67;;;11.30;;
79284;SDS011;68734;50.452;11.636;2023-05-20T01:20:21;20.17;;;10.57;;
79284;SDS011;68734;50.452;11.636;2023-05-20T01:22:48;20.00;;;10.10;;
79284;SDS011;68734;50.452;11.636;2023-05-20T01:25:16;32.60;;;11.93;;
79284;SDS011;68734;50.452;11.636;2023-05-20T01:27:42;20.83;;;10.77;;
79284;SDS011;68734;50.452;11.636;2023-05-20T01:30:08;22.60;;;11.18;;
79284;SDS011;68734;50.452;11.636;2023-05-20T01:32:35;20.20;;;11.05;;
79284;SDS011;68734;50.452;11.636;2023-05-20T01:35:05;20.25;;;11.05;;
79284;SDS011;68734;50.452;11.636;2023-05-20T01:37:31;22.67;;;11.85;;
79284;SDS011;68734;50.452;11.636;2023-05-20T01:40:03;25.27;;;10.60;;
79284;SDS011;68734;50.452;11.636;2023-05-20T01:42:31;24.55;;;10.85;;
79284;SDS011;68734;50.452;11.636;2023-05-20T01:44:58;21.48;;;10.77;;
79284;SDS011;68734;50.452;11.636;2023-05-20T01:47:26;23.08;;;11.75;;
79284;SDS011;68734;50.452;11.636;2023-05-20T01:49:51;23.20;;;12.48;;
79284;SDS011;68734;50.452;11.636;2023-05-20T01:52:20;21.08;;;12.20;;
79284;SDS011;68734;50.452;11.636;2023-05-20T01:54:46;27.25;;;11.45;;
79284;SDS011;68734;50.452;11.636;2023-05-20T01:57:18;24.42;;;12.15;;
79284;SDS011;68734;50.452;11.636;2023-05-20T01:59:47;23.20;;;11.60;;
79284;SDS011;68734;50.452;11.636;2023-05-20T02:02:12;20.35;;;11.57;;
79284;SDS011;68734;50.452;11.636;2023-05-20T02:04:38;22.00;;;11.85;;
79284;SDS011;68734;50.452;11.636;2023-05-20T02:07:06;29.42;;;12.68;;
79284;SDS011;68734;50.452;11.636;2023-05-20T02:09:33;21.83;;;10.38;;
79284;SDS011;68734;50.452;11.636;2023-05-20T02:11:59;24.40;;;11.88;;
79284;SDS011;68734;50.452;11.636;2023-05-20T02:14:24;25.00;;;13.00;;
79284;SDS011;68734;50.452;11.636;2023-05-20T02:16:50;25.38;;;12.13;;
79284;SDS011;68734;50.452;11.636;2023-05-20T02:19:15;25.90;;;11.05;;
79284;SDS011;68734;50.452;11.636;2023-05-20T02:24:13;26.20;;;12.88;;
79284;SDS011;68734;50.452;11.636;2023-05-20T02:26:38;24.17;;;12.30;;
79284;SDS011;68734;50.452;11.636;2023-05-20T02:29:03;22.67;;;12.93;;
79284;SDS011;68734;50.452;11.636;2023-05-20T02:31:29;23.48;;;11.90;;
79284;SDS011;68734;50.452;11.636;2023-05-20T02:33:55;23.55;;;13.25;;
79284;SDS011;68734;50.452;11.636;2023-05-20T02:36:20;32.17;;;12.88;;
79284;SDS011;68734;50.452;11.636;2023-05-20T02:38:46;26.30;;;13.30;;
79284;SDS011;68734;50.452;11.636;2023-05-20T02:41:14;27.08;;;12.20;;
79284;SDS011;68734;50.452;11.636;2023-05-20T02:43:40;25.88;;;12.90;;
79284;SDS011;68734;50.452;11.636;2023-05-20T02:46:08;29.05;;;14.07;;
79284;SDS011;68734;50.452;11.636;2023-05-20T02:48:33;34.70;;;15.15;;
79284;SDS011;68734;50.452;11.636;2023-05-20T02:50:59;33.03;;;14.25;;
79284;SDS011;68734;50.452;11.636;2023-05-20T02:53:25;27.33;;;13.82;;
79284;SDS011;68734;50.452;11.636;2023-05-20T02:55:50;32.15;;;15.63;;
79284;SDS011;68734;50.452;11.636;2023-05-20T02:58:16;28.85;;;13.75;;
79284;SDS011;68734;50.452;11.636;2023-05-20T03:00:44;34.42;;;15.57;;
79284;SDS011;68734;50.452;11.636;2023-05-20T03:03:09;30.90;;;14.30;;
79284;SDS011;68734;50.452;11.636;2023-05-20T03:05:35;33.20;;;15.73;;
79284;SDS011;68734;50.452;11.636;2023-05-20T03:08:11;30.55;;;15.25;;
79284;SDS011;68734;50.452;11.636;2023-05-20T03:10:39;31.08;;;14.85;;
79284;SDS011;68734;50.452;11.636;2023-05-20T03:13:05;36.85;;;14.63;;
79284;SDS011;68734;50.452;11.636;2023-05-20T03:15:33;27.80;;;14.88;;
79284;SDS011;68734;50.452;11.636;2023-05-20T03:18:02;32.15;;;15.63;;
79284;SDS011;68734;50.452;11.636;2023-05-20T03:20:28;34.20;;;16.05;;
79284;SDS011;68734;50.452;11.636;2023-05-20T03:22:54;33.17;;;15.07;;
79284;SDS011;68734;50.452;11.636;2023-05-20T03:25:21;37.58;;;16.83;;
79284;SDS011;68734;50.452;11.636;2023-05-20T03:27:46;38.85;;;17.45;;
79284;SDS011;68734;50.452;11.636;2023-05-20T03:30:12;36.85;;;16.70;;
79284;SDS011;68734;50.452;11.636;2023-05-20T03:32:40;35.40;;;16.33;;
79284;SDS011;68734;50.452;11.636;2023-05-20T03:35:06;43.45;;;17.85;;
79284;SDS011;68734;50.452;11.636;2023-05-20T03:37:33;36.70;;;17.23;;
79284;SDS011;68734;50.452;11.636;2023-05-20T03:39:59;38.88;;;16.83;;
79284;SDS011;68734;50.452;11.636;2023-05-20T03:42:24;37.15;;;17.38;;
79284;SDS011;68734;50.452;11.636;2023-05-20T03:44:50;40.13;;;16.17;;
79284;SDS011;68734;50.452;11.636;2023-05-20T03:47:15;43.10;;;17.65;;
79284;SDS011;68734;50.452;11.636;2023-05-20T03:49:40;40.50;;;17.70;;
79284;SDS011;68734;50.452;11.636;2023-05-20T03:52:06;48.05;;;19.92;;
79284;SDS011;68734;50.452;11.636;2023-05-20T03:54:32;40.72;;;15.85;;
79284;SDS011;68734;50.452;11.636;2023-05-20T03:56:59;43.60;;;18.85;;
79284;SDS011;68734;50.452;11.636;2023-05-20T03:59:25;38.85;;;18.02;;
79284;SDS011;68734;50.452;11.636;2023-05-20T04:01:51;38.80;;;15.35;;
79284;SDS011;68734;50.452;11.636;2023-05-20T04:04:17;39.15;;;19.33;;
79284;SDS011;68734;50.452;11.636;2023-05-20T04:06:42;36.47;;;18.10;;
79284;SDS011;68734;50.452;11.636;2023-05-20T04:09:07;46.00;;;18.58;;
79284;SDS011;68734;50.452;11.636;2023-05-20T04:11:33;49.42;;;20.50;;
79284;SDS011;68734;50.452;11.636;2023-05-20T04:13:59;36.03;;;16.08;;
79284;SDS011;68734;50.452;11.636;2023-05-20T04:16:24;44.15;;;18.17;;
79284;SDS011;68734;50.452;11.636;2023-05-20T04:18:53;46.03;;;19.60;;
79284;SDS011;68734;50.452;11.636;2023-05-20T04:21:19;48.17;;;20.40;;
79284;SDS011;68734;50.452;11.636;2023-05-20T04:23:45;40.85;;;17.88;;
79284;SDS011;68734;50.452;11.636;2023-05-20T04:26:10;44.20;;;18.77;;
79284;SDS011;68734;50.452;11.636;2023-05-20T04:28:36;40.40;;;17.77;;
79284;SDS011;68734;50.452;11.636;2023-05-20T04:31:03;47.92;;;20.10;;
79284;SDS011;68734;50.452;11.636;2023-05-20T04:33:31;52.63;;;21.58;;
79284;SDS011;68734;50.452;11.636;2023-05-20T04:35:57;44.55;;;19.63;;
79284;SDS011;68734;50.452;11.636;2023-05-20T04:38:27;46.70;;;19.58;;
79284;SDS011;68734;50.452;11.636;2023-05-20T04:40:58;46.15;;;20.23;;
79284;SDS011;68734;50.452;11.636;2023-05-20T04:43:24;41.20;;;20.13;;
79284;SDS011;68734;50.452;11.636;2023-05-20T04:45:50;45.72;;;20.17;;
79284;SDS011;68734;50.452;11.636;2023-05-20T04:48:18;44.45;;;18.85;;
79284;SDS011;68734;50.452;11.636;2023-05-20T04:50:44;40.22;;;19.17;;
79284;SDS011;68734;50.452;11.636;2023-05-20T04:53:10;49.03;;;18.58;;
79284;SDS011;68734;50.452;11.636;2023-05-20T04:55:35;50.47;;;19.58;;
79284;SDS011;68734;50.452;11.636;2023-05-20T04:58:03;47.85;;;18.65;;
79284;SDS011;68734;50.452;11.636;2023-05-20T05:00:32;43.97;;;18.52;;
79284;SDS011;68734;50.452;11.636;2023-05-20T05:02:57;46.60;;;20.33;;
79284;SDS011;68734;50.452;11.636;2023-05-20T05:05:25;40.67;;;18.48;;
79284;SDS011;68734;50.452;11.636;2023-05-20T05:07:50;47.42;;;19.38;;
79284;SDS011;68734;50.452;11.636;2023-05-20T05:10:18;43.47;;;19.85;;
79284;SDS011;68734;50.452;11.636;2023-05-20T05:12:43;46.30;;;20.80;;
79284;SDS011;68734;50.452;11.636;2023-05-20T05:15:09;50.42;;;19.73;;
79284;SDS011;68734;50.452;11.636;2023-05-20T05:17:35;47.50;;;22.08;;
79284;SDS011;68734;50.452;11.636;2023-05-20T05:20:00;46.05;;;20.70;;
79284;SDS011;68734;50.452;11.636;2023-05-20T05:22:26;45.28;;;20.65;;
79284;SDS011;68734;50.452;11.636;2023-05-20T05:24:51;51.75;;;21.50;;
79284;SDS011;68734;50.452;11.636;2023-05-20T05:27:17;47.70;;;20.67;;
79284;SDS011;68734;50.452;11.636;2023-05-20T05:29:44;49.00;;;20.30;;
79284;SDS011;68734;50.452;11.636;2023-05-20T05:32:10;61.58;;;20.50;;
79284;SDS011;68734;50.452;11.636;2023-05-20T05:34:35;47.78;;;20.17;;
79284;SDS011;68734;50.452;11.636;2023-05-20T05:37:01;42.92;;;19.15;;
79284;SDS011;68734;50.452;11.636;2023-05-20T05:39:28;46.60;;;20.10;;
79284;SDS011;68734;50.452;11.636;2023-05-20T05:41:54;45.33;;;19.98;;
79284;SDS011;68734;50.452;11.636;2023-05-20T05:44:20;51.65;;;21.00;;
79284;SDS011;68734;50.452;11.636;2023-05-20T05:46:45;55.67;;;22.63;;
79284;SDS011;68734;50.452;11.636;2023-05-20T05:49:10;50.97;;;21.88;;
79284;SDS011;68734;50.452;11.636;2023-05-20T05:51:36;50.63;;;22.50;;
79284;SDS011;68734;50.452;11.636;2023-05-20T05:54:01;54.75;;;24.05;;
79284;SDS011;68734;50.452;11.636;2023-05-20T05:56:27;58.88;;;22.60;;
79284;SDS011;68734;50.452;11.636;2023-05-20T05:58:52;48.28;;;22.08;;
79284;SDS011;68734;50.452;11.636;2023-05-20T06:01:18;48.75;;;20.92;;
79284;SDS011;68734;50.452;11.636;2023-05-20T06:03:43;50.22;;;21.15;;
79284;SDS011;68734;50.452;11.636;2023-05-20T06:06:08;52.90;;;22.10;;
79284;SDS011;68734;50.452;11.636;2023-05-20T06:08:36;47.75;;;19.73;;
79284;SDS011;68734;50.452;11.636;2023-05-20T06:11:04;53.40;;;23.17;;
79284;SDS011;68734;50.452;11.636;2023-05-20T06:13:29;50.42;;;19.75;;
79284;SDS011;68734;50.452;11.636;2023-05-20T06:15:55;56.15;;;22.27;;
79284;SDS011;68734;50.452;11.636;2023-05-20T06:18:22;52.08;;;22.92;;
79284;SDS011;68734;50.452;11.636;2023-05-20T06:20:53;56.95;;;22.58;;
79284;SDS011;68734;50.452;11.636;2023-05-20T06:23:19;50.70;;;20.48;;
79284;SDS011;68734;50.452;11.636;2023-05-20T06:25:45;56.58;;;22.45;;
79284;SDS011;68734;50.452;11.636;2023-05-20T06:28:10;48.22;;;20.80;;
79284;SDS011;68734;50.452;11.636;2023-05-20T06:30:36;46.83;;;19.88;;
79284;SDS011;68734;50.452;11.636;2023-05-20T06:33:02;46.38;;;19.83;;
79284;SDS011;68734;50.452;11.636;2023-05-20T06:35:27;51.03;;;21.77;;
79284;SDS011;68734;50.452;11.636;2023-05-20T06:37:52;52.83;;;21.75;;
79284;SDS011;68734;50.452;11.636;2023-05-20T06:40:19;52.65;;;20.30;;
79284;SDS011;68734;50.452;11.636;2023-05-20T06:42:44;50.05;;;21.77;;
79284;SDS011;68734;50.452;11.636;2023-05-20T06:45:10;43.03;;;20.13;;
79284;SDS011;68734;50.452;11.636;2023-05-20T06:47:35;46.67;;;20.20;;
79284;SDS011;68734;50.452;11.636;2023-05-20T06:50:01;40.25;;;18.83;;
79284;SDS011;68734;50.452;11.636;2023-05-20T06:52:27;47.60;;;19.85;;
79284;SDS011;68734;50.452;11.636;2023-05-20T06:54:52;52.70;;;19.90;;
79284;SDS011;68734;50.452;11.636;2023-05-20T06:57:21;47.03;;;18.65;;
79284;SDS011;68734;50.452;11.636;2023-05-20T06:59:46;50.15;;;20.35;;
79284;SDS011;68734;50.452;11.636;2023-05-20T07:02:12;49.97;;;20.92;;
79284;SDS011;68734;50.452;11.636;2023-05-20T07:04:37;46.95;;;18.38;;
79284;SDS011;68734;50.452;11.636;2023-05-20T07:07:02;47.25;;;19.40;;
79284;SDS011;68734;50.452;11.636;2023-05-20T07:09:28;48.42;;;19.75;;
79284;SDS011;68734;50.452;11.636;2023-05-20T07:11:53;48.10;;;21.27;;
79284;SDS011;68734;50.452;11.636;2023-05-20T07:14:19;46.15;;;20.27;;
79284;SDS011;68734;50.452;11.636;2023-05-20T07:16:44;52.28;;;20.17;;
79284;SDS011;68734;50.452;11.636;2023-05-20T07:22:32;51.58;;;20.10;;
79284;SDS011;68734;50.452;11.636;2023-05-20T07:25:00;48.00;;;18.08;;
79284;SDS011;68734;50.452;11.636;2023-05-20T07:27:25;48.35;;;19.33;;
79284;SDS011;68734;50.452;11.636;2023-05-20T07:29:51;47.28;;;18.70;;
79284;SDS011;68734;50.452;11.636;2023-05-20T07:32:16;44.28;;;19.25;;
79284;SDS011;68734;50.452;11.636;2023-05-20T07:34:41;46.25;;;19.48;;
79284;SDS011;68734;50.452;11.636;2023-05-20T07:37:07;44.88;;;18.88;;
79284;SDS011;68734;50.452;11.636;2023-05-20T07:39:34;42.00;;;17.25;;
79284;SDS011;68734;50.452;11.636;2023-05-20T07:41:59;37.70;;;16.40;;
79284;SDS011;68734;50.452;11.636;2023-05-20T07:44:25;43.78;;;19.27;;
79284;SDS011;68734;50.452;11.636;2023-05-20T07:46:53;42.15;;;18.55;;
79284;SDS011;68734;50.452;11.636;2023-05-20T07:49:19;44.20;;;18.80;;
79284;SDS011;68734;50.452;11.636;2023-05-20T07:51:47;39.20;;;16.83;;
79284;SDS011;68734;50.452;11.636;2023-05-20T07:54:13;44.97;;;18.92;;
79284;SDS011;68734;50.452;11.636;2023-05-20T07:56:40;46.28;;;20.45;;
79284;SDS011;68734;50.452;11.636;2023-05-20T07:59:06;48.85;;;19.52;;
79284;SDS011;68734;50.452;11.636;2023-05-20T08:01:31;47.47;;;22.20;;
79284;SDS011;68734;50.452;11.636;2023-05-20T08:03:57;54.50;;;22.02;;
79284;SDS011;68734;50.452;11.636;2023-05-20T08:06:22;50.35;;;23.05;;
79284;SDS011;68734;50.452;11.636;2023-05-20T08:08:50;47.22;;;21.45;;
79284;SDS011;68734;50.452;11.636;2023-05-20T08:11:18;59.05;;;22.67;;
79284;SDS011;68734;50.452;11.636;2023-05-20T08:13:43;50.40;;;21.05;;
79284;SDS011;68734;50.452;11.636;2023-05-20T08:16:13;43.95;;;20.20;;
79284;SDS011;68734;50.452;11.636;2023-05-20T08:18:39;49.58;;;23.02;;
79284;SDS011;68734;50.452;11.636;2023-05-20T08:21:05;54.65;;;21.17;;
79284;SDS011;68734;50.452;11.636;2023-05-20T08:23:34;53.92;;;21.27;;
79284;SDS011;68734;50.452;11.636;2023-05-20T08:25:59;42.40;;;19.98;;
79284;SDS011;68734;50.452;11.636;2023-05-20T08:28:28;45.20;;;20.95;;
79284;SDS011;68734;50.452;11.636;2023-05-20T08:30:56;44.67;;;22.23;;
79284;SDS011;68734;50.452;11.636;2023-05-20T08:33:22;34.92;;;16.15;;
79284;SDS011;68734;50.452;11.636;2023-05-20T08:35:48;39.83;;;17.30;;
79284;SDS011;68734;50.452;11.636;2023-05-20T08:38:14;38.92;;;17.85;;
79284;SDS011;68734;50.452;11.636;2023-05-20T08:40:39;35.60;;;15.98;;
79284;SDS011;68734;50.452;11.636;2023-05-20T08:43:04;42.80;;;19.33;;
79284;SDS011;68734;50.452;11.636;2023-05-20T08:45:31;36.55;;;16.33;;
79284;SDS011;68734;50.452;11.636;2023-05-20T08:47:58;37.28;;;16.95;;
79284;SDS011;68734;50.452;11.636;2023-05-20T08:50:25;38.70;;;17.02;;
79284;SDS011;68734;50.452;11.636;2023-05-20T08:52:50;43.25;;;19.08;;
79284;SDS011;68734;50.452;11.636;2023-05-20T08:55:17;42.38;;;18.23;;
79284;SDS011;68734;50.452;11.636;2023-05-20T08:57:52;44.65;;;18.35;;
79284;SDS011;68734;50.452;11.636;2023-05-20T09:00:19;47.80;;;20.40;;
79284;SDS011;68734;50.452;11.636;2023-05-20T09:02:52;49.95;;;19.40;;
79284;SDS011;68734;50.452;11.636;2023-05-20T09:05:19;47.63;;;20.23;;
79284;SDS011;68734;50.452;11.636;2023-05-20T09:07:45;54.15;;;20.50;;
79284;SDS011;68734;50.452;11.636;2023-05-20T09:10:11;45.78;;;20.45;;
79284;SDS011;68734;50.452;11.636;2023-05-20T09:12:37;45.58;;;20.17;;
79284;SDS011;68734;50.452;11.636;2023-05-20T09:15:05;42.50;;;19.20;;
79284;SDS011;68734;50.452;11.636;2023-05-20T09:17:35;45.35;;;19.95;;
79284;SDS011;68734;50.452;11.636;2023-05-20T09:20:04;46.60;;;21.35;;
79284;SDS011;68734;50.452;11.636;2023-05-20T09:22:38;47.15;;;19.83;;
79284;SDS011;68734;50.452;11.636;2023-05-20T09:25:04;43.83;;;19.77;;
79284;SDS011;68734;50.452;11.636;2023-05-20T09:27:30;44.35;;;20.63;;
79284;SDS011;68734;50.452;11.636;2023-05-20T09:29:58;46.33;;;20.08;;
79284;SDS011;68734;50.452;11.636;2023-05-20T09:32:24;43.38;;;18.98;;
79284;SDS011;68734;50.452;11.636;2023-05-20T09:34:54;47.58;;;21.30;;
79284;SDS011;68734;50.452;11.636;2023-05-20T09:37:20;48.45;;;20.45;;
79284;SDS011;68734;50.452;11.636;2023-05-20T09:42:32;46.22;;;20.17;;
79284;SDS011;68734;50.452;11.636;2023-05-20T09:45:04;56.88;;;22.60;;
79284;SDS011;68734;50.452;11.636;2023-05-20T09:47:33;45.67;;;19.90;;
79284;SDS011;68734;50.452;11.636;2023-05-20T09:50:00;46.10;;;19.52;;
79284;SDS011;68734;50.452;11.636;2023-05-20T09:52:28;39.75;;;17.98;;
79284;SDS011;68734;50.452;11.636;2023-05-20T09:54:54;36.67;;;18.73;;
79284;SDS011;68734;50.452;11.636;2023-05-20T09:57:21;47.95;;;18.50;;
79284;SDS011;68734;50.452;11.636;2023-05-20T09:59:47;40.17;;;18.25;;
79284;SDS011;68734;50.452;11.636;2023-05-20T10:02:15;43.83;;;18.95;;
79284;SDS011;68734;50.452;11.636;2023-05-20T10:04:43;37.28;;;17.63;;
79284;SDS011;68734;50.452;11.636;2023-05-20T10:07:19;40.35;;;18.98;;
79284;SDS011;68734;50.452;11.636;2023-05-20T10:21:13;42.10;;;18.80;;
79284;SDS011;68734;50.452;11.636;2023-05-20T10:23:43;32.95;;;16.23;;
79284;SDS011;68734;50.452;11.636;2023-05-20T10:26:08;43.25;;;18.80;;
79284;SDS011;68734;50.452;11.636;2023-05-20T10:28:35;41.78;;;17.17;;
79284;SDS011;68734;50.452;11.636;2023-05-20T10:31:02;40.38;;;18.33;;
79284;SDS011;68734;50.452;11.636;2023-05-20T10:33:42;40.70;;;17.95;;
79284;SDS011;68734;50.452;11.636;2023-05-20T10:36:08;47.00;;;17.67;;
79284;SDS011;68734;50.452;11.636;2023-05-20T10:38:34;42.30;;;18.48;;
79284;SDS011;68734;50.452;11.636;2023-05-20T10:41:09;44.80;;;18.90;;
79284;SDS011;68734;50.452;11.636;2023-05-20T10:46:31;40.85;;;17.73;;
79284;SDS011;68734;50.452;11.636;2023-05-20T10:48:57;45.33;;;17.35;;
79284;SDS011;68734;50.452;11.636;2023-05-20T10:51:23;36.10;;;16.58;;
79284;SDS011;68734;50.452;11.636;2023-05-20T10:53:53;33.38;;;16.50;;
79284;SDS011;68734;50.452;11.636;2023-05-20T10:56:20;29.27;;;14.77;;
79284;SDS011;68734;50.452;11.636;2023-05-20T10:58:51;37.33;;;16.13;;
79284;SDS011;68734;50.452;11.636;2023-05-20T11:01:18;35.78;;;15.35;;
79284;SDS011;68734;50.452;11.636;2023-05-20T11:03:46;37.13;;;16.42;;
79284;SDS011;68734;50.452;11.636;2023-05-20T11:06:15;35.67;;;14.68;;
79284;SDS011;68734;50.452;11.636;2023-05-20T11:08:42;37.30;;;15.90;;
79284;SDS011;68734;50.452;11.636;2023-05-20T11:11:11;31.77;;;14.45;;
79284;SDS011;68734;50.452;11.636;2023-05-20T11:13:39;35.25;;;15.88;;
79284;SDS011;68734;50.452;11.636;2023-05-20T11:16:05;36.67;;;16.02;;
79284;SDS011;68734;50.452;11.636;2023-05-20T11:18:30;35.10;;;16.45;;
79284;SDS011;68734;50.452;11.636;2023-05-20T11:20:58;36.75;;;17.15;;
79284;SDS011;68734;50.452;11.636;2023-05-20T11:23:25;34.97;;;16.00;;
79284;SDS011;68734;50.452;11.636;2023-05-20T11:25:52;41.88;;;16.60;;
79284;SDS011;68734;50.452;11.636;2023-05-20T11:28:18;36.45;;;17.00;;
79284;SDS011;68734;50.452;11.636;2023-05-20T11:30:47;39.03;;;17.00;;
79284;SDS011;68734;50.452;11.636;2023-05-20T11:33:14;39.70;;;17.02;;
79284;SDS011;68734;50.452;11.636;2023-05-20T11:35:44;35.90;;;15.88;;
79284;SDS011;68734;50.452;11.636;2023-05-20T11:38:11;39.72;;;17.05;;
79284;SDS011;68734;50.452;11.636;2023-05-20T11:40:42;36.15;;;16.85;;
79284;SDS011;68734;50.452;11.636;2023-05-20T11:43:10;38.28;;;16.65;;
79284;SDS011;68734;50.452;11.636;2023-05-20T11:45:40;42.97;;;17.17;;
79284;SDS011;68734;50.452;11.636;2023-05-20T11:48:09;38.42;;;17.02;;
79284;SDS011;68734;50.452;11.636;2023-05-20T11:50:40;34.25;;;16.13;;
79284;SDS011;68734;50.452;11.636;2023-05-20T11:53:07;35.20;;;16.33;;
79284;SDS011;68734;50.452;11.636;2023-05-20T11:55:43;36.83;;;17.23;;
79284;SDS011;68734;50.452;11.636;2023-05-20T11:58:19;39.20;;;17.65;;
79284;SDS011;68734;50.452;11.636;2023-05-20T12:00:46;44.78;;;20.23;;
79284;SDS011;68734;50.452;11.636;2023-05-20T12:03:12;39.30;;;18.45;;
79284;SDS011;68734;50.452;11.636;2023-05-20T12:05:38;30.00;;;16.15;;
79284;SDS011;68734;50.452;11.636;2023-05-20T12:08:06;37.25;;;17.27;;
79284;SDS011;68734;50.452;11.636;2023-05-20T12:10:32;40.78;;;17.92;;
79284;SDS011;68734;50.452;11.636;2023-05-20T12:12:57;41.40;;;19.65;;
79284;SDS011;68734;50.452;11.636;2023-05-20T12:15:27;42.42;;;18.50;;
79284;SDS011;68734;50.452;11.636;2023-05-20T12:17:53;39.90;;;18.70;;
79284;SDS011;68734;50.452;11.636;2023-05-20T12:20:20;37.22;;;17.48;;
79284;SDS011;68734;50.452;11.636;2023-05-20T12:22:47;36.72;;;17.20;;
79284;SDS011;68734;50.452;11.636;2023-05-20T12:25:14;39.10;;;17.27;;
79284;SDS011;68734;50.452;11.636;2023-05-20T12:27:41;47.38;;;20.25;;
79284;SDS011;68734;50.452;11.636;2023-05-20T12:30:08;41.58;;;18.90;;
79284;SDS011;68734;50.452;11.636;2023-05-20T12:32:34;39.90;;;18.17;;
79284;SDS011;68734;50.452;11.636;2023-05-20T12:35:05;41.92;;;19.05;;
79284;SDS011;68734;50.452;11.636;2023-05-20T12:37:31;39.40;;;17.55;;
79284;SDS011;68734;50.452;11.636;2023-05-20T12:39:57;36.38;;;17.60;;
79284;SDS011;68734;50.452;11.636;2023-05-20T12:42:23;41.25;;;17.65;;
79284;SDS011;68734;50.452;11.636;2023-05-20T12:44:48;45.80;;;21.48;;
79284;SDS011;68734;50.452;11.636;2023-05-20T12:47:14;39.50;;;18.73;;
79284;SDS011;68734;50.452;11.636;2023-05-20T12:49:44;38.92;;;17.25;;
79284;SDS011;68734;50.452;11.636;2023-05-20T12:52:09;40.70;;;18.88;;
79284;SDS011;68734;50.452;11.636;2023-05-20T12:54:35;40.28;;;19.42;;
79284;SDS011;68734;50.452;11.636;2023-05-20T12:57:02;39.65;;;18.40;;
79284;SDS011;68734;50.452;11.636;2023-05-20T12:59:31;41.97;;;19.23;;
79284;SDS011;68734;50.452;11.636;2023-05-20T13:01:57;40.70;;;18.58;;
79284;SDS011;68734;50.452;11.636;2023-05-20T13:04:22;36.55;;;16.50;;
79284;SDS011;68734;50.452;11.636;2023-05-20T13:06:48;44.42;;;18.75;;
79284;SDS011;68734;50.452;11.636;2023-05-20T13:09:14;43.95;;;19.42;;
79284;SDS011;68734;50.452;11.636;2023-05-20T13:11:39;45.17;;;19.85;;
79284;SDS011;68734;50.452;11.636;2023-05-20T13:14:05;42.78;;;18.30;;
79284;SDS011;68734;50.452;11.636;2023-05-20T13:16:30;40.95;;;18.52;;
79284;SDS011;68734;50.452;11.636;2023-05-20T13:18:56;35.60;;;16.52;;
79284;SDS011;68734;50.452;11.636;2023-05-20T13:21:21;48.95;;;19.33;;
79284;SDS011;68734;50.452;11.636;2023-05-20T13:23:47;43.05;;;20.10;;
79284;SDS011;68734;50.452;11.636;2023-05-20T13:26:12;36.97;;;16.95;;
79284;SDS011;68734;50.452;11.636;2023-05-20T13:28:38;35.55;;;17.05;;
79284;SDS011;68734;50.452;11.636;2023-05-20T13:31:04;45.97;;;20.27;;
79284;SDS011;68734;50.452;11.636;2023-05-20T13:33:33;36.72;;;18.67;;
79284;SDS011;68734;50.452;11.636;2023-05-20T13:35:58;42.78;;;17.95;;
79284;SDS011;68734;50.452;11.636;2023-05-20T13:38:26;46.88;;;20.92;;
79284;SDS011;68734;50.452;11.636;2023-05-20T13:40:51;43.05;;;18.65;;
79284;SDS011;68734;50.452;11.636;2023-05-20T13:43:17;43.75;;;18.65;;
79284;SDS011;68734;50.452;11.636;2023-05-20T13:45:42;49.90;;;20.23;;
79284;SDS011;68734;50.452;11.636;2023-05-20T13:48:08;44.85;;;18.02;;
79284;SDS011;68734;50.452;11.636;2023-05-20T13:50:33;46.95;;;20.05;;
79284;SDS011;68734;50.452;11.636;2023-05-20T13:53:01;40.65;;;19.13;;
79284;SDS011;68734;50.452;11.636;2023-05-20T13:55:27;50.83;;;21.27;;
79284;SDS011;68734;50.452;11.636;2023-05-20T13:57:52;42.08;;;20.35;;
79284;SDS011;68734;50.452;11.636;2023-05-20T14:00:19;44.55;;;17.70;;
79284;SDS011;68734;50.452;11.636;2023-05-20T14:02:47;40.10;;;19.23;;
79284;SDS011;68734;50.452;11.636;2023-05-20T14:05:13;42.10;;;19.60;;
79284;SDS011;68734;50.452;11.636;2023-05-20T14:07:38;37.85;;;17.60;;
79284;SDS011;68734;50.452;11.636;2023-05-20T14:10:04;40.75;;;18.73;;
79284;SDS011;68734;50.452;11.636;2023-05-20T14:12:30;43.65;;;19.33;;
79284;SDS011;68734;50.452;11.636;2023-05-20T14:14:56;43.65;;;17.02;;
79284;SDS011;68734;50.452;11.636;2023-05-20T14:17:21;43.92;;;19.67;;
79284;SDS011;68734;50.452;11.636;2023-05-20T14:19:47;44.97;;;20.48;;
79284;SDS011;68734;50.452;11.636;2023-05-20T14:22:12;40.92;;;17.90;;
79284;SDS011;68734;50.452;11.636;2023-05-20T14:24:39;45.97;;;20.08;;
79284;SDS011;68734;50.452;11.636;2023-05-20T14:27:05;40.65;;;18.52;;
79284;SDS011;68734;50.452;11.636;2023-05-20T14:29:30;39.55;;;19.73;;